Anna Desgagnes — VCWS — position and weather

sailwx.info

Track history (hours):
 
Tides and Currents Weather Stations Pressure Air Temp Water Temp Dewpoint Dewpoint Depression Visibility Wind Speed Wind Dir Waves Ship Positions

Anna Desgagnes

Last reported at 2016-Sep-28 16:00 UTC. Time now 2016-Sep-28 17:10 UTC.
Position N 50°00' W 062°42'.

Length 173 m; draft 7.3 m.

Type: Ship. MMSI: 316297000.

Wind from 070 at 10 knots

Barometer 1034.1 mb
Air temperature 9.3 ° C
Dewpoint 5.7 ° C
Water temperature 10.5 ° C

Date/timePositionNaut miles runAvg speedWind from/ knotsBaromVisibWave heightAir tempDewpointWater temp
2016-Sep-28 16:00N 50°00' W 062°42'3115.7 070 / 101034.1 9.3 5.710.5
2016-Sep-28 14:00N 49°54' W 061°54'1211.6 060 / 141033.0 9.0 6.110.2
2016-Sep-28 13:00N 49°54' W 061°36'3517.4 060 / 151032.6 8.6 6.210.3
2016-Sep-28 11:00N 49°54' W 060°42'1515.5 060 / 151031.0 8.3 6.210.4
2016-Sep-28 10:00N 49°54' W 060°18'3014.8 070 / 141030.0 8.8 6.1 9.6
2016-Sep-28 08:00N 50°06' W 059°36'1716.5 080 / 181028.7 8.3 5.310.2
2016-Sep-28 07:00N 50°12' W 059°12'1313.0 070 / 211027.9 7.9 4.310.9
2016-Sep-28 06:00N 50°18' W 058°54'5016.6 060 / 221027.5 7.9 4.210.7
2016-Sep-28 03:00N 50°54' W 058°00'1011.8 050 / 181025.3 7.8 3.711.2
2016-Sep-28 02:11N 50°59' W 057°47'318.1
2016-Sep-28 02:00N 51°00' W 057°42'715.2 060 / 121025.2 7.5 4.011.1
2016-Sep-28 01:33N 51°05' W 057°36'1017.7
2016-Sep-28 01:00N 51°12' W 057°24'1312.8 050 / 131023.9 6.8 3.710.6
2016-Sep-28 00:00N 51°18' W 057°06'7017.5 040 / 121022.5 6.0 3.7 5.8
2016-Sep-27 20:00N 52°00' W 055°36'3015.1 030 / 171017.0 5.9 4.6 6.0
2016-Sep-27 18:00N 52°30' W 055°30'1818.0 020 / 221015.4 5.4 4.0 7.0
2016-Sep-27 17:00N 52°48' W 055°30'1212.0 020 / 191015.0 4.8 3.7 4.9
2016-Sep-27 16:00N 53°00' W 055°30'3618.0 020 / 211014.8 4.5 3.4 3.7
2016-Sep-27 14:00N 53°36' W 055°30'1312.5 020 / 211013.9 5.1 3.7 5.3
2016-Sep-27 13:00N 53°48' W 055°36'1413.9 020 / 231013.2 5.3 3.7 4.7
2016-Sep-27 12:00N 54°00' W 055°48'1413.9 030 / 221012.5 4.7 3.6 3.7
2016-Sep-27 11:00N 54°12' W 056°00'1615.9 030 / 231011.9 5.3 4.7 4.8
2016-Sep-27 10:00N 54°24' W 056°18'4213.9 030 / 191011.4 4.3 4.1 3.7
2016-Sep-27 07:00N 55°00' W 056°54'1413.8 030 / 171010.2 4.5 3.9 4.0
2016-Sep-27 06:00N 55°12' W 057°06'1919.2 010 / 181010.3 4.5 4.4 3.8
2016-Sep-27 05:00N 55°30' W 057°18'1615.7 350 / 161010.4 3.8 3.5 3.6
2016-Sep-27 04:00N 55°42' W 057°36'1413.8 330 / 151010.4 3.0 2.6 3.1
2016-Sep-27 03:00N 55°54' W 057°48'1615.7 350 / 151010.5 3.2 2.4 3.3
2016-Sep-27 02:00N 56°06' W 058°06'2914.6 360 / 131010.4 3.4 1.9 3.4
2016-Sep-27 00:00N 56°30' W 058°36'1615.6 030 / 101009.4 3.3 2.0 3.3
2016-Sep-26 23:00N 56°42' W 058°54'1413.7 360 / 151009.1 2.4 2.0 2.9
2016-Sep-26 22:00N 56°54' W 059°06'1515.5 360 / 141008.3 1.6 1.2 2.3
2016-Sep-26 21:00N 57°06' W 059°24'1515.5 340 / 171007.8 1.3 0.8 2.2
2016-Sep-26 20:00N 57°18' W 059°42'1413.6 350 / 171007.3 1.3 0.3 2.7
2016-Sep-26 19:00N 57°30' W 059°54'1515.4 350 / 181007.1 1.3 0.7 2.8
2016-Sep-26 18:00N 57°42' W 060°12'3115.3 340 / 191007.1 1.0 0.4 2.3
2016-Sep-26 16:00N 58°06' W 060°48'1413.6 320 / 241007.5 2.2 0.4 2.8
2016-Sep-26 15:00N 58°18' W 061°00'1515.3 320 / 251008.1 2.5 0.4 2.2
2016-Sep-26 14:00N 58°30' W 061°18'3015.2 320 / 251008.5 2.4 0.4 2.3
2016-Sep-26 12:00N 58°54' W 061°54'1313.5 330 / 191009.1 3.4 0.9 2.6
2016-Sep-26 11:00N 59°06' W 062°06'1818.3 340 / 171009.2 2.2-0.0 2.4
2016-Sep-26 10:00N 59°24' W 062°12'1212.4 340 / 191009.4 2.6 1.0 2.7
2016-Sep-26 09:00N 59°36' W 062°18'1212.4 340 / 161009.2 2.2 1.0 2.0
2016-Sep-26 08:00N 59°48' W 062°24'1818.2 330 / 161009.1 2.1 1.0 1.9
2016-Sep-26 07:00N 60°06' W 062°30'1212.0 300 / 171009.2 1.6 1.0 1.8
2016-Sep-26 06:00N 60°18' W 062°30'1818.2 280 / 151009.4 1.5 1.0 1.9
2016-Sep-26 05:00N 60°36' W 062°36'1212.0 280 / 121009.4 1.5 1.1 2.0
2016-Sep-26 04:00N 60°48' W 062°36'1818.0 280 / 91009.8 2.2 1.6 1.8
2016-Sep-26 03:00N 61°06' W 062°36'1212.3 320 / 71010.4 3.1 2.1 4.0
2016-Sep-26 02:00N 61°18' W 062°42'3015.0 360 / 101011.1 3.1 1.9 3.3
2016-Sep-26 00:00N 61°48' W 062°42'1212.3 010 / 121012.0 3.2 2.5 4.4
2016-Sep-25 23:00N 62°00' W 062°48'1818.0 360 / 81012.0 2.9 2.2 3.7
2016-Sep-25 22:00N 62°18' W 062°48'3015.0 330 / 41011.8 2.6 1.8 3.4
2016-Sep-25 20:00N 62°48' W 062°48'1212.3 260 / 91012.7 3.0 1.8 3.1
2016-Sep-25 19:00N 63°00' W 062°54'1212.0 240 / 101013.2 3.1 1.4 3.2
2016-Sep-25 18:00N 63°12' W 062°54'3015.1 240 / 111013.5 2.9 1.4 2.7
2016-Sep-25 16:00N 63°42' W 063°00'3115.5 260 / 111014.4 3.0 0.9 2.7
2016-Sep-25 14:00N 64°12' W 063°18'1615.9 300 / 231016.0 3.7 0.7 2.3
2016-Sep-25 13:00N 64°24' W 063°42'1615.8 300 / 271016.3 4.4 1.2 2.2
2016-Sep-25 12:00N 64°36' W 064°06'2713.6 300 / 221017.1 3.4 1.5 3.1
2016-Sep-25 10:00N 64°54' W 064°54'2120.7 310 / 201019.0 2.5 2.2 2.8
2016-Sep-25 09:00N 65°12' W 065°18'1414.2 310 / 181020.0 1.6 1.6 3.2
2016-Sep-25 08:00N 65°24' W 065°36'2713.5 310 / 161020.1 1.0 1.0 3.3
2016-Sep-25 06:00N 65°48' W 066°06'1918.7 260 / 121020.1 1.4 1.1 3.1
2016-Sep-25 05:00N 66°06' W 065°54'8 3.9 290 / 41020.0 1.9 1.5 2.5
2016-Sep-25 03:00N 66°12' W 065°42'0 0.0 1021.1 2.0 1.5
2016-Sep-25 02:00N 66°12' W 065°42'0 0.0 010 / 21021.4 1.8 1.2
2016-Sep-25 01:00N 66°12' W 065°42'0 0.0 1021.4 2.5 1.4
2016-Sep-25 00:00N 66°12' W 065°42'0 0.0 050 / 31021.7 3.4 1.7
2016-Sep-24 23:00N 66°12' W 065°42'0 0.0 1021.7 3.0 1.7
2016-Sep-24 22:00N 66°12' W 065°42'0 0.0 1021.6 2.8 1.6
2016-Sep-24 21:00N 66°12' W 065°42'0 0.0 180 / 21021.5 2.6 1.4
2016-Sep-24 20:00N 66°12' W 065°42'0 0.0 240 / 51021.2 2.5 1.4 2.6
2016-Sep-24 18:00N 66°12' W 065°42'8 7.7 240 / 71020.3 3.2 1.5 2.4
2016-Sep-24 17:00N 66°06' W 065°54'1414.1 220 / 51020.2 2.2 1.2 2.6
2016-Sep-24 16:00N 65°54' W 066°12'1313.0 310 / 51019.8 2.2 1.2 3.3
2016-Sep-24 15:00N 65°42' W 066°00'2814.1 320 / 11019.7 2.2 1.6 3.4
2016-Sep-24 13:00N 65°18' W 065°24'1414.2 220 / 41018.8 2.5 1.0 3.3
2016-Sep-24 12:00N 65°06' W 065°06'1717.5 210 / 81018.4 2.0 0.9 2.7
2016-Sep-24 11:00N 64°54' W 064°36'2613.1 080 / 31018.1 2.8 0.2 2.1
2016-Sep-24 09:00N 64°48' W 063°36'2411.9 030 / 91016.8 2.5 1.0 3.2
2016-Sep-24 07:00N 64°54' W 062°42'2019.5 030 / 81015.7 2.4 1.5 3.5
2016-Sep-24 06:00N 65°12' W 062°24'1414.2 020 / 61015.3 2.2 1.1 2.6
2016-Sep-24 05:00N 65°24' W 062°06'1414.1 040 / 121014.8 2.2 0.7 2.3
2016-Sep-24 04:00N 65°36' W 061°48'3316.7 030 / 161014.4 2.5 0.6 2.3
2016-Sep-24 02:00N 66°06' W 061°12'1818.2 020 / 221013.8 2.2-0.3 1.9
2016-Sep-24 01:00N 66°24' W 061°06'1212.2 010 / 201013.9 3.5-0.2 2.7
2016-Sep-24 00:00N 66°36' W 061°00'4515.0 340 / 181013.8 2.5 0.6 2.4
2016-Sep-23 21:00N 67°18' W 061°42'1515.1 320 / 121013.6 3.3 2.1 4.4
2016-Sep-23 20:00N 67°30' W 062°06'1515.1 310 / 121013.2 3.3 1.8 4.3
2016-Sep-23 19:00N 67°42' W 062°30'1515.0 300 / 101012.9 3.0 1.7 4.1
2016-Sep-23 18:00N 67°54' W 062°54'3517.5 350 / 81012.7 3.6 1.4 4.2
2016-Sep-23 16:00N 68°24' W 063°42'3812.8 010 / 91012.7 3.1-0.4 4.5
2016-Sep-23 13:00N 68°54' W 064°48'2019.9 030 / 191012.2 3.3 2.1 4.7
2016-Sep-23 12:00N 69°12' W 065°12'2814.1 030 / 171012.3 2.3 1.2 4.5
2016-Sep-23 10:00N 69°36' W 065°54'1514.6 030 / 191012.9 2.1 1.2 3.5
2016-Sep-23 09:00N 69°48' W 066°18'2914.5 030 / 181012.9 1.5 0.6 4.2
2016-Sep-23 07:00N 70°12' W 067°06'1414.5 050 / 101013.4 1.6 0.8 4.1
2016-Sep-23 06:00N 70°24' W 067°30'1212.1 050 / 101013.4 2.0 1.3 4.0
2016-Sep-23 05:00N 70°24' W 068°06'12 3.9 020 / 131013.3 1.7 1.0 4.1
2016-Sep-23 02:00N 70°30' W 068°36'0 0.0 330 / 71014.4 1.7 0.8
2016-Sep-23 01:00N 70°30' W 068°36'0 0.0 330 / 51014.5 1.7 1.1
2016-Sep-23 00:00N 70°30' W 068°36'0 0.0 310 / 111014.4 1.3 0.7 4.9
2016-Sep-22 23:00N 70°30' W 068°36'0 0.0 310 / 111014.3 1.2 0.6 4.8
2016-Sep-22 22:00N 70°30' W 068°36'1312.7 300 / 161013.8 1.2 0.6 4.4
2016-Sep-22 21:00N 70°18' W 068°24'1414.5 320 / 141014.1 2.1 1.3 4.2
2016-Sep-22 20:00N 70°30' W 068°00'1414.4 360 / 91014.1 2.5 1.1 3.7
2016-Sep-22 19:00N 70°42' W 068°24'1414.4 030 / 81014.1 2.2 2.1 3.6
2016-Sep-22 18:00N 70°54' W 068°48'1414.3 350 / 171014.6 1.0 0.8 3.4
2016-Sep-22 17:00N 71°06' W 069°12'4414.8 350 / 161014.9 0.7-0.2 3.6
2016-Sep-22 14:00N 71°36' W 070°54'2713.7 040 / 101016.0 0.1-2.0 1.5
2016-Sep-22 12:00N 71°54' W 072°00'1312.7 060 / 111015.7 0.3-1.8 1.7
2016-Sep-22 11:00N 72°00' W 072°36'2713.5 060 / 121015.4 -0.3-2.1 1.9
2016-Sep-22 09:00N 72°18' W 073°42'4314.4 070 / 101015.1 -0.0-2.1 1.6
2016-Sep-22 06:00N 72°42' W 075°42'1413.8 160 / 71014.4 0.4-2.6 1.6
2016-Sep-22 05:00N 72°48' W 076°24'1212.4 360 / 41013.9 -0.0-1.0 2.3
2016-Sep-22 04:00N 72°48' W 077°06'1212.4 060 / 101013.5 -0.2-2.9 2.8
2016-Sep-22 03:00N 72°48' W 077°48'7 3.5 250 / 31013.8 0.1-2.1 3.0
2016-Sep-22 01:00N 72°42' W 078°00'0 0.0 180 / 51013.8 -0.4-2.6
2016-Sep-22 00:00N 72°42' W 078°00'0 0.0 180 / 61013.7 -0.0-3.1
2016-Sep-21 23:00N 72°42' W 078°00'0 0.0 180 / 71013.3 0.2-2.7
2016-Sep-21 22:00N 72°42' W 078°00'0 0.0 190 / 101012.8 0.3-2.5
2016-Sep-21 21:00N 72°42' W 078°00'0 0.0 190 / 91012.3 0.6-2.5 3.8
2016-Sep-21 20:00N 72°42' W 078°00'0 0.0 190 / 101011.7 0.9-1.5 3.6
2016-Sep-21 19:00N 72°42' W 078°00'5210.4 170 / 121011.2 0.3-1.4 3.5
2016-Sep-21 14:00N 73°12' W 080°24'3812.6 330 / 181011.2 -0.6-4.7 2.3
2016-Sep-21 11:00N 73°48' W 081°06'6 6.0 260 / 181010.7 -1.6-3.9 0.4
2016-Sep-21 10:00N 73°54' W 081°06'0 0.0 270 / 211009.8 -1.5-3.7 0.3
2016-Sep-21 09:00N 73°54' W 081°06'5 5.0 270 / 261009.5 -1.5-4.3 0.4
2016-Sep-21 08:00N 73°54' W 081°24'1413.7 270 / 151009.5 -1.1-3.7 0.7
2016-Sep-21 07:00N 74°06' W 081°48'16 8.0 280 / 131008.9 -1.1-4.2 1.0
2016-Sep-21 05:00N 74°12' W 082°42'1010.2 270 / 191008.8 -1.5-3.5 0.7
2016-Sep-21 04:00N 74°06' W 083°12'5 4.9 260 / 231008.6 -1.9-4.0 0.2
2016-Sep-21 03:00N 74°06' W 083°30'2110.7 270 / 221009.4 -1.8-3.8 0.3
2016-Sep-21 01:00N 74°06' W 084°48'1313.2 280 / 211009.6 -2.3-4.1 0.7
2016-Sep-21 00:00N 74°06' W 085°36'1211.5 280 / 221009.7 -2.3-3.8-0.1
2016-Sep-20 23:00N 74°12' W 086°12'35 8.7 270 / 171009.4 -1.4-2.2-0.4
2016-Sep-20 19:00N 74°18' W 088°18'2010.1 260 / 71008.7 -2.0-2.1-0.6
2016-Sep-20 17:00N 74°06' W 089°18'1211.5 280 / 101008.5 -1.2-1.5-0.7
2016-Sep-20 16:00N 74°12' W 089°54'15 7.4 280 / 91008.4 -0.5-1.0-0.7
2016-Sep-20 14:00N 74°12' W 090°48'8 8.2 260 / 71008.4 -1.0-1.5-0.7
2016-Sep-20 13:00N 74°12' W 091°18'10 9.8 280 / 101008.4 -1.5-1.6-0.3
2016-Sep-20 12:00N 74°12' W 091°54'13 3.2 290 / 91008.1 -1.9-2.0-0.6
2016-Sep-20 08:00N 74°18' W 092°36'2 1.6 270 / 11007.2 -2.3-2.4-0.4
2016-Sep-20 07:00N 74°18' W 092°42'2 1.6 270 / 11007.0 -2.3-2.4-0.5
2016-Sep-20 06:00N 74°18' W 092°48'5 1.6 270 / 21007.0 -2.4-2.5-0.4
2016-Sep-20 03:00N 74°18' W 093°06'10 5.0 270 / 21007.0 -2.2-2.3-0.5
2016-Sep-20 01:00N 74°24' W 093°36'14 7.1 310 / 81006.3 -1.7-1.8-0.6
2016-Sep-19 23:00N 74°30' W 094°24'9 8.8 310 / 71005.8 -0.9-1.0-0.5
2016-Sep-19 22:00N 74°36' W 094°48'2 0.5 300 / 61005.1 -0.9-0.9-0.6
2016-Sep-19 19:00N 74°36' W 094°54'0 0.0 140 / 41004.5 -0.9-1.0
2016-Sep-19 18:00N 74°36' W 094°54'0 0.0 110 / 51004.3 -0.9-0.9
2016-Sep-19 14:00N 74°36' W 094°54'3 0.8 100 / 131003.6 -1.0-1.1-0.7
2016-Sep-19 10:00N 74°36' W 095°06'2 1.6 090 / 121003.5 -1.3-1.3-0.7
2016-Sep-19 09:00N 74°36' W 095°00'2 1.6 080 / 141003.2 -1.3-1.4-0.6
2016-Sep-19 08:00N 74°36' W 094°54'2 1.6 090 / 171002.9 -1.1-1.2-0.6
2016-Sep-19 07:00N 74°36' W 095°00'2 1.6 080 / 161002.8 -1.2-1.3-0.7
2016-Sep-19 06:00N 74°36' W 094°54'2 0.5 080 / 141002.7 -1.2-1.3-0.6
2016-Sep-19 03:00N 74°36' W 094°48'0 0.0 100 / 131002.8 -0.4-1.0
2016-Sep-19 02:00N 74°36' W 094°48'0 0.0 100 / 141002.6 -0.2-1.1
2016-Sep-19 01:00N 74°36' W 094°48'6 3.1 100 / 131002.7 -0.1-1.2
2016-Sep-18 23:00N 74°42' W 094°54'0 0.0 100 / 121002.0 -0.3-1.8
2016-Sep-18 22:00N 74°42' W 094°54'0 0.0 100 / 151001.8 -0.5-1.9-0.5
2016-Sep-18 21:00N 74°42' W 094°54'6 2.1 110 / 121001.7 -0.5-1.8-0.6
2016-Sep-18 18:00N 74°36' W 094°48'0 0.0 160 / 111001.7 -0.9-1.8-0.6
2016-Sep-18 17:00N 74°36' W 094°48'   160 / 161001.1 -0.9-2.0-0.6
Track history (hours):
 
Tides and Currents Weather Stations Pressure Air Temp Water Temp Dewpoint Dewpoint Depression Visibility Wind Speed Wind Dir Waves Ship Positions

Anna Desgagnes

Last reported at 2016-Sep-28 16:00 UTC. Time now 2016-Sep-28 17:10 UTC.
Position N 50°00' W 062°42'.

Length 173 m; draft 7.3 m.

Type: Ship. MMSI: 316297000.

Wind from 070 at 10 knots

Barometer 1034.1 mb
Air temperature 9.3 ° C
Dewpoint 5.7 ° C
Water temperature 10.5 ° C

Date/timePositionNaut miles runAvg speedWind from/ knotsBaromVisibWave heightAir tempDewpointWater temp
2016-Sep-28 16:00N 50°00' W 062°42'3115.7 070 / 101034.1 9.3 5.710.5
2016-Sep-28 14:00N 49°54' W 061°54'1211.6 060 / 141033.0 9.0 6.110.2
2016-Sep-28 13:00N 49°54' W 061°36'3517.4 060 / 151032.6 8.6 6.210.3
2016-Sep-28 11:00N 49°54' W 060°42'1515.5 060 / 151031.0 8.3 6.210.4
2016-Sep-28 10:00N 49°54' W 060°18'3014.8 070 / 141030.0 8.8 6.1 9.6
2016-Sep-28 08:00N 50°06' W 059°36'1716.5 080 / 181028.7 8.3 5.310.2
2016-Sep-28 07:00N 50°12' W 059°12'1313.0 070 / 211027.9 7.9 4.310.9
2016-Sep-28 06:00N 50°18' W 058°54'5016.6 060 / 221027.5 7.9 4.210.7
2016-Sep-28 03:00N 50°54' W 058°00'1011.8 050 / 181025.3 7.8 3.711.2
2016-Sep-28 02:11N 50°59' W 057°47'318.1
2016-Sep-28 02:00N 51°00' W 057°42'715.2 060 / 121025.2 7.5 4.011.1
2016-Sep-28 01:33N 51°05' W 057°36'1017.7
2016-Sep-28 01:00N 51°12' W 057°24'1312.8 050 / 131023.9 6.8 3.710.6
2016-Sep-28 00:00N 51°18' W 057°06'7017.5 040 / 121022.5 6.0 3.7 5.8
2016-Sep-27 20:00N 52°00' W 055°36'3015.1 030 / 171017.0 5.9 4.6 6.0
2016-Sep-27 18:00N 52°30' W 055°30'1818.0 020 / 221015.4 5.4 4.0 7.0
2016-Sep-27 17:00N 52°48' W 055°30'1212.0 020 / 191015.0 4.8 3.7 4.9
2016-Sep-27 16:00N 53°00' W 055°30'3618.0 020 / 211014.8 4.5 3.4 3.7
2016-Sep-27 14:00N 53°36' W 055°30'1312.5 020 / 211013.9 5.1 3.7 5.3
2016-Sep-27 13:00N 53°48' W 055°36'1413.9 020 / 231013.2 5.3 3.7 4.7
2016-Sep-27 12:00N 54°00' W 055°48'1413.9 030 / 221012.5 4.7 3.6 3.7
2016-Sep-27 11:00N 54°12' W 056°00'1615.9 030 / 231011.9 5.3 4.7 4.8
2016-Sep-27 10:00N 54°24' W 056°18'4213.9 030 / 191011.4 4.3 4.1 3.7
2016-Sep-27 07:00N 55°00' W 056°54'1413.8 030 / 171010.2 4.5 3.9 4.0
2016-Sep-27 06:00N 55°12' W 057°06'1919.2 010 / 181010.3 4.5 4.4 3.8
2016-Sep-27 05:00N 55°30' W 057°18'1615.7 350 / 161010.4 3.8 3.5 3.6
2016-Sep-27 04:00N 55°42' W 057°36'1413.8 330 / 151010.4 3.0 2.6 3.1
2016-Sep-27 03:00N 55°54' W 057°48'1615.7 350 / 151010.5 3.2 2.4 3.3
2016-Sep-27 02:00N 56°06' W 058°06'2914.6 360 / 131010.4 3.4 1.9 3.4
2016-Sep-27 00:00N 56°30' W 058°36'1615.6 030 / 101009.4 3.3 2.0 3.3
2016-Sep-26 23:00N 56°42' W 058°54'1413.7 360 / 151009.1 2.4 2.0 2.9
2016-Sep-26 22:00N 56°54' W 059°06'1515.5 360 / 141008.3 1.6 1.2 2.3
2016-Sep-26 21:00N 57°06' W 059°24'1515.5 340 / 171007.8 1.3 0.8 2.2
2016-Sep-26 20:00N 57°18' W 059°42'1413.6 350 / 171007.3 1.3 0.3 2.7
2016-Sep-26 19:00N 57°30' W 059°54'1515.4 350 / 181007.1 1.3 0.7 2.8
2016-Sep-26 18:00N 57°42' W 060°12'3115.3 340 / 191007.1 1.0 0.4 2.3
2016-Sep-26 16:00N 58°06' W 060°48'1413.6 320 / 241007.5 2.2 0.4 2.8
2016-Sep-26 15:00N 58°18' W 061°00'1515.3 320 / 251008.1 2.5 0.4 2.2
2016-Sep-26 14:00N 58°30' W 061°18'3015.2 320 / 251008.5 2.4 0.4 2.3
2016-Sep-26 12:00N 58°54' W 061°54'1313.5 330 / 191009.1 3.4 0.9 2.6
2016-Sep-26 11:00N 59°06' W 062°06'1818.3 340 / 171009.2 2.2-0.0 2.4
2016-Sep-26 10:00N 59°24' W 062°12'1212.4 340 / 191009.4 2.6 1.0 2.7
2016-Sep-26 09:00N 59°36' W 062°18'1212.4 340 / 161009.2 2.2 1.0 2.0
2016-Sep-26 08:00N 59°48' W 062°24'1818.2 330 / 161009.1 2.1 1.0 1.9
2016-Sep-26 07:00N 60°06' W 062°30'1212.0 300 / 171009.2 1.6 1.0 1.8
2016-Sep-26 06:00N 60°18' W 062°30'1818.2 280 / 151009.4 1.5 1.0 1.9
2016-Sep-26 05:00N 60°36' W 062°36'1212.0 280 / 121009.4 1.5 1.1 2.0
2016-Sep-26 04:00N 60°48' W 062°36'1818.0 280 / 91009.8 2.2 1.6 1.8
2016-Sep-26 03:00N 61°06' W 062°36'1212.3 320 / 71010.4 3.1 2.1 4.0
2016-Sep-26 02:00N 61°18' W 062°42'3015.0 360 / 101011.1 3.1 1.9 3.3
2016-Sep-26 00:00N 61°48' W 062°42'1212.3 010 / 121012.0 3.2 2.5 4.4
2016-Sep-25 23:00N 62°00' W 062°48'1818.0 360 / 81012.0 2.9 2.2 3.7
2016-Sep-25 22:00N 62°18' W 062°48'3015.0 330 / 41011.8 2.6 1.8 3.4
2016-Sep-25 20:00N 62°48' W 062°48'1212.3 260 / 91012.7 3.0 1.8 3.1
2016-Sep-25 19:00N 63°00' W 062°54'1212.0 240 / 101013.2 3.1 1.4 3.2
2016-Sep-25 18:00N 63°12' W 062°54'3015.1 240 / 111013.5 2.9 1.4 2.7
2016-Sep-25 16:00N 63°42' W 063°00'3115.5 260 / 111014.4 3.0 0.9 2.7
2016-Sep-25 14:00N 64°12' W 063°18'1615.9 300 / 231016.0 3.7 0.7 2.3
2016-Sep-25 13:00N 64°24' W 063°42'1615.8 300 / 271016.3 4.4 1.2 2.2
2016-Sep-25 12:00N 64°36' W 064°06'2713.6 300 / 221017.1 3.4 1.5 3.1
2016-Sep-25 10:00N 64°54' W 064°54'2120.7 310 / 201019.0 2.5 2.2 2.8
2016-Sep-25 09:00N 65°12' W 065°18'1414.2 310 / 181020.0 1.6 1.6 3.2
2016-Sep-25 08:00N 65°24' W 065°36'2713.5 310 / 161020.1 1.0 1.0 3.3
2016-Sep-25 06:00N 65°48' W 066°06'1918.7 260 / 121020.1 1.4 1.1 3.1
2016-Sep-25 05:00N 66°06' W 065°54'8 3.9 290 / 41020.0 1.9 1.5 2.5
2016-Sep-25 03:00N 66°12' W 065°42'0 0.0 1021.1 2.0 1.5
2016-Sep-25 02:00N 66°12' W 065°42'0 0.0 010 / 21021.4 1.8 1.2
2016-Sep-25 01:00N 66°12' W 065°42'0 0.0 1021.4 2.5 1.4
2016-Sep-25 00:00N 66°12' W 065°42'0 0.0 050 / 31021.7 3.4 1.7
2016-Sep-24 23:00N 66°12' W 065°42'0 0.0 1021.7 3.0 1.7
2016-Sep-24 22:00N 66°12' W 065°42'0 0.0 1021.6 2.8 1.6
2016-Sep-24 21:00N 66°12' W 065°42'0 0.0 180 / 21021.5 2.6 1.4
2016-Sep-24 20:00N 66°12' W 065°42'0 0.0 240 / 51021.2 2.5 1.4 2.6
2016-Sep-24 18:00N 66°12' W 065°42'8 7.7 240 / 71020.3 3.2 1.5 2.4
2016-Sep-24 17:00N 66°06' W 065°54'1414.1 220 / 51020.2 2.2 1.2 2.6
2016-Sep-24 16:00N 65°54' W 066°12'1313.0 310 / 51019.8 2.2 1.2 3.3
2016-Sep-24 15:00N 65°42' W 066°00'2814.1 320 / 11019.7 2.2 1.6 3.4
2016-Sep-24 13:00N 65°18' W 065°24'1414.2 220 / 41018.8 2.5 1.0 3.3
2016-Sep-24 12:00N 65°06' W 065°06'1717.5 210 / 81018.4 2.0 0.9 2.7
2016-Sep-24 11:00N 64°54' W 064°36'2613.1 080 / 31018.1 2.8 0.2 2.1
2016-Sep-24 09:00N 64°48' W 063°36'2411.9 030 / 91016.8 2.5 1.0 3.2
2016-Sep-24 07:00N 64°54' W 062°42'2019.5 030 / 81015.7 2.4 1.5 3.5
2016-Sep-24 06:00N 65°12' W 062°24'1414.2 020 / 61015.3 2.2 1.1 2.6
2016-Sep-24 05:00N 65°24' W 062°06'1414.1 040 / 121014.8 2.2 0.7 2.3
2016-Sep-24 04:00N 65°36' W 061°48'3316.7 030 / 161014.4 2.5 0.6 2.3
2016-Sep-24 02:00N 66°06' W 061°12'1818.2 020 / 221013.8 2.2-0.3 1.9
2016-Sep-24 01:00N 66°24' W 061°06'1212.2 010 / 201013.9 3.5-0.2 2.7
2016-Sep-24 00:00N 66°36' W 061°00'4515.0 340 / 181013.8 2.5 0.6 2.4
2016-Sep-23 21:00N 67°18' W 061°42'1515.1 320 / 121013.6 3.3 2.1 4.4
2016-Sep-23 20:00N 67°30' W 062°06'1515.1 310 / 121013.2 3.3 1.8 4.3
2016-Sep-23 19:00N 67°42' W 062°30'1515.0 300 / 101012.9 3.0 1.7 4.1
2016-Sep-23 18:00N 67°54' W 062°54'3517.5 350 / 81012.7 3.6 1.4 4.2
2016-Sep-23 16:00N 68°24' W 063°42'3812.8 010 / 91012.7 3.1-0.4 4.5
2016-Sep-23 13:00N 68°54' W 064°48'2019.9 030 / 191012.2 3.3 2.1 4.7
2016-Sep-23 12:00N 69°12' W 065°12'2814.1 030 / 171012.3 2.3 1.2 4.5
2016-Sep-23 10:00N 69°36' W 065°54'1514.6 030 / 191012.9 2.1 1.2 3.5
2016-Sep-23 09:00N 69°48' W 066°18'2914.5 030 / 181012.9 1.5 0.6 4.2
2016-Sep-23 07:00N 70°12' W 067°06'1414.5 050 / 101013.4 1.6 0.8 4.1
2016-Sep-23 06:00N 70°24' W 067°30'1212.1 050 / 101013.4 2.0 1.3 4.0
2016-Sep-23 05:00N 70°24' W 068°06'12 3.9 020 / 131013.3 1.7 1.0 4.1
2016-Sep-23 02:00N 70°30' W 068°36'0 0.0 330 / 71014.4 1.7 0.8
2016-Sep-23 01:00N 70°30' W 068°36'0 0.0 330 / 51014.5 1.7 1.1
2016-Sep-23 00:00N 70°30' W 068°36'0 0.0 310 / 111014.4 1.3 0.7 4.9
2016-Sep-22 23:00N 70°30' W 068°36'0 0.0 310 / 111014.3 1.2 0.6 4.8
2016-Sep-22 22:00N 70°30' W 068°36'1312.7 300 / 161013.8 1.2 0.6 4.4
2016-Sep-22 21:00N 70°18' W 068°24'1414.5 320 / 141014.1 2.1 1.3 4.2
2016-Sep-22 20:00N 70°30' W 068°00'1414.4 360 / 91014.1 2.5 1.1 3.7
2016-Sep-22 19:00N 70°42' W 068°24'1414.4 030 / 81014.1 2.2 2.1 3.6
2016-Sep-22 18:00N 70°54' W 068°48'1414.3 350 / 171014.6 1.0 0.8 3.4
2016-Sep-22 17:00N 71°06' W 069°12'4414.8 350 / 161014.9 0.7-0.2 3.6
2016-Sep-22 14:00N 71°36' W 070°54'2713.7 040 / 101016.0 0.1-2.0 1.5
2016-Sep-22 12:00N 71°54' W 072°00'1312.7 060 / 111015.7 0.3-1.8 1.7
2016-Sep-22 11:00N 72°00' W 072°36'2713.5 060 / 121015.4 -0.3-2.1 1.9
2016-Sep-22 09:00N 72°18' W 073°42'4314.4 070 / 101015.1 -0.0-2.1 1.6
2016-Sep-22 06:00N 72°42' W 075°42'1413.8 160 / 71014.4 0.4-2.6 1.6
2016-Sep-22 05:00N 72°48' W 076°24'1212.4 360 / 41013.9 -0.0-1.0 2.3
2016-Sep-22 04:00N 72°48' W 077°06'1212.4 060 / 101013.5 -0.2-2.9 2.8
2016-Sep-22 03:00N 72°48' W 077°48'7 3.5 250 / 31013.8 0.1-2.1 3.0
2016-Sep-22 01:00N 72°42' W 078°00'0 0.0 180 / 51013.8 -0.4-2.6
2016-Sep-22 00:00N 72°42' W 078°00'0 0.0 180 / 61013.7 -0.0-3.1
2016-Sep-21 23:00N 72°42' W 078°00'0 0.0 180 / 71013.3 0.2-2.7
2016-Sep-21 22:00N 72°42' W 078°00'0 0.0 190 / 101012.8 0.3-2.5
2016-Sep-21 21:00N 72°42' W 078°00'0 0.0 190 / 91012.3 0.6-2.5 3.8
2016-Sep-21 20:00N 72°42' W 078°00'0 0.0 190 / 101011.7 0.9-1.5 3.6
2016-Sep-21 19:00N 72°42' W 078°00'5210.4 170 / 121011.2 0.3-1.4 3.5
2016-Sep-21 14:00N 73°12' W 080°24'3812.6 330 / 181011.2 -0.6-4.7 2.3
2016-Sep-21 11:00N 73°48' W 081°06'6 6.0 260 / 181010.7 -1.6-3.9 0.4
2016-Sep-21 10:00N 73°54' W 081°06'0 0.0 270 / 211009.8 -1.5-3.7 0.3
2016-Sep-21 09:00N 73°54' W 081°06'5 5.0 270 / 261009.5 -1.5-4.3 0.4
2016-Sep-21 08:00N 73°54' W 081°24'1413.7 270 / 151009.5 -1.1-3.7 0.7
2016-Sep-21 07:00N 74°06' W 081°48'16 8.0 280 / 131008.9 -1.1-4.2 1.0
2016-Sep-21 05:00N 74°12' W 082°42'1010.2 270 / 191008.8 -1.5-3.5 0.7
2016-Sep-21 04:00N 74°06' W 083°12'5 4.9 260 / 231008.6 -1.9-4.0 0.2
2016-Sep-21 03:00N 74°06' W 083°30'2110.7 270 / 221009.4 -1.8-3.8 0.3
2016-Sep-21 01:00N 74°06' W 084°48'1313.2 280 / 211009.6 -2.3-4.1 0.7
2016-Sep-21 00:00N 74°06' W 085°36'1211.5 280 / 221009.7 -2.3-3.8-0.1
2016-Sep-20 23:00N 74°12' W 086°12'35 8.7 270 / 171009.4 -1.4-2.2-0.4
2016-Sep-20 19:00N 74°18' W 088°18'2010.1 260 / 71008.7 -2.0-2.1-0.6
2016-Sep-20 17:00N 74°06' W 089°18'1211.5 280 / 101008.5 -1.2-1.5-0.7
2016-Sep-20 16:00N 74°12' W 089°54'15 7.4 280 / 91008.4 -0.5-1.0-0.7
2016-Sep-20 14:00N 74°12' W 090°48'8 8.2 260 / 71008.4 -1.0-1.5-0.7
2016-Sep-20 13:00N 74°12' W 091°18'10 9.8 280 / 101008.4 -1.5-1.6-0.3
2016-Sep-20 12:00N 74°12' W 091°54'13 3.2 290 / 91008.1 -1.9-2.0-0.6
2016-Sep-20 08:00N 74°18' W 092°36'2 1.6 270 / 11007.2 -2.3-2.4-0.4
2016-Sep-20 07:00N 74°18' W 092°42'2 1.6 270 / 11007.0 -2.3-2.4-0.5
2016-Sep-20 06:00N 74°18' W 092°48'5 1.6 270 / 21007.0 -2.4-2.5-0.4
2016-Sep-20 03:00N 74°18' W 093°06'10 5.0 270 / 21007.0 -2.2-2.3-0.5
2016-Sep-20 01:00N 74°24' W 093°36'14 7.1 310 / 81006.3 -1.7-1.8-0.6
2016-Sep-19 23:00N 74°30' W 094°24'9 8.8 310 / 71005.8 -0.9-1.0-0.5
2016-Sep-19 22:00N 74°36' W 094°48'2 0.5 300 / 61005.1 -0.9-0.9-0.6
2016-Sep-19 19:00N 74°36' W 094°54'0 0.0 140 / 41004.5 -0.9-1.0
2016-Sep-19 18:00N 74°36' W 094°54'0 0.0 110 / 51004.3 -0.9-0.9
2016-Sep-19 14:00N 74°36' W 094°54'3 0.8 100 / 131003.6 -1.0-1.1-0.7
2016-Sep-19 10:00N 74°36' W 095°06'2 1.6 090 / 121003.5 -1.3-1.3-0.7
2016-Sep-19 09:00N 74°36' W 095°00'2 1.6 080 / 141003.2 -1.3-1.4-0.6
2016-Sep-19 08:00N 74°36' W 094°54'2 1.6 090 / 171002.9 -1.1-1.2-0.6
2016-Sep-19 07:00N 74°36' W 095°00'2 1.6 080 / 161002.8 -1.2-1.3-0.7
2016-Sep-19 06:00N 74°36' W 094°54'2 0.5 080 / 141002.7 -1.2-1.3-0.6
2016-Sep-19 03:00N 74°36' W 094°48'0 0.0 100 / 131002.8 -0.4-1.0
2016-Sep-19 02:00N 74°36' W 094°48'0 0.0 100 / 141002.6 -0.2-1.1
2016-Sep-19 01:00N 74°36' W 094°48'6 3.1 100 / 131002.7 -0.1-1.2
2016-Sep-18 23:00N 74°42' W 094°54'0 0.0 100 / 121002.0 -0.3-1.8
2016-Sep-18 22:00N 74°42' W 094°54'0 0.0 100 / 151001.8 -0.5-1.9-0.5
2016-Sep-18 21:00N 74°42' W 094°54'6 2.1 110 / 121001.7 -0.5-1.8-0.6
2016-Sep-18 18:00N 74°36' W 094°48'0 0.0 160 / 111001.7 -0.9-1.8-0.6
2016-Sep-18 17:00N 74°36' W 094°48'   160 / 161001.1 -0.9-2.0-0.6

Dump ship's entire track history